createdAt,value
2017-04-13T00:03:47.272Z,8.9
2017-04-13T00:14:01.765Z,9
2017-04-13T00:24:16.318Z,8.9
2017-04-13T00:34:30.214Z,8.9
2017-04-13T00:44:43.964Z,8.6
2017-04-13T00:54:57.798Z,8.7
2017-04-13T01:05:12.540Z,8.5
2017-04-13T01:15:28.188Z,8.3
2017-04-13T01:25:43.831Z,8.2
2017-04-13T01:35:59.366Z,8.2
2017-04-13T01:46:14.676Z,8.2
2017-04-13T01:56:29.711Z,8.3
2017-04-13T02:06:45.028Z,8
2017-04-13T02:16:59.813Z,8
2017-04-13T02:27:15.373Z,8.1
2017-04-13T02:37:30.108Z,8.2
2017-04-13T02:47:43.968Z,8.2
2017-04-13T02:57:58.573Z,8.1
2017-04-13T03:08:12.507Z,8.1
2017-04-13T03:18:26.310Z,8
2017-04-13T03:28:40.058Z,8.1
2017-04-13T03:38:54.192Z,8.1
2017-04-13T03:49:09.788Z,8
2017-04-13T03:59:24.348Z,8
2017-04-13T04:09:38.632Z,8.1
2017-04-13T04:19:52.343Z,8.3
2017-04-13T04:30:06.353Z,8.2
2017-04-13T04:40:20.095Z,8.3
2017-04-13T04:50:35.763Z,8.3
2017-04-13T05:00:50.686Z,8.3
2017-04-13T05:11:06.144Z,8.3
2017-04-13T05:21:21.594Z,8.4
2017-04-13T05:31:36.350Z,8.5
2017-04-13T05:41:50.283Z,8.6
2017-04-13T05:52:04.466Z,8.7
2017-04-13T06:02:18.805Z,8.9
2017-04-13T06:12:33.274Z,9.1
2017-04-13T06:22:48.633Z,9.1
2017-04-13T06:33:03.623Z,9.3
2017-04-13T06:43:18.204Z,9.3
2017-04-13T06:53:32.211Z,9.4
2017-04-13T07:03:46.812Z,9.6
2017-04-13T07:14:01.315Z,9.5
2017-04-13T07:24:16.008Z,9.7
2017-04-13T07:34:30.056Z,9.4
2017-04-13T07:44:45.130Z,9.5
2017-04-13T07:54:59.311Z,9.6
2017-04-13T08:05:13.798Z,9.8
2017-04-13T08:15:28.310Z,9.8
2017-04-13T08:25:44.026Z,10.1
2017-04-13T08:35:58.102Z,10.4
2017-04-13T08:46:13.313Z,10.9
2017-04-13T08:56:27.655Z,11.1
2017-04-13T09:06:42.352Z,11.1
2017-04-13T09:16:56.669Z,11.1
2017-04-13T09:27:11.483Z,11.2
2017-04-13T09:37:27.254Z,11.3
2017-04-13T09:47:41.567Z,11.2
2017-04-13T09:57:56.780Z,11
2017-04-13T10:08:12.519Z,11.6
2017-04-13T10:18:26.414Z,10.9
2017-04-13T10:28:41.831Z,11.1
2017-04-13T10:38:57.548Z,11.6
2017-04-13T10:49:11.646Z,10.5
2017-04-13T10:59:26.673Z,9.1
2017-04-13T11:09:41.499Z,8.8
2017-04-13T11:19:55.699Z,8.4
2017-04-13T11:30:11.299Z,8.7
2017-04-13T11:40:25.561Z,8.7
2017-04-13T11:50:40.984Z,8.9
2017-04-13T12:00:56.235Z,9.4
2017-04-13T12:11:10.461Z,10
2017-04-13T12:21:26.234Z,11.5
2017-04-13T12:31:41.852Z,12.5
2017-04-13T12:41:55.718Z,11
2017-04-13T12:52:11.259Z,10.4
2017-04-13T13:02:25.657Z,11
2017-04-13T13:12:40.932Z,11.6
2017-04-13T13:22:55.417Z,12.1
2017-04-13T13:33:09.322Z,12.9
2017-04-13T13:43:24.079Z,11.8
2017-04-13T13:53:38.593Z,11.4
2017-04-13T14:03:52.667Z,11.5
2017-04-13T14:14:06.871Z,12
2017-04-13T14:24:21.046Z,13.2
2017-04-13T14:34:36.861Z,12.5
2017-04-13T14:44:52.146Z,12.6
2017-04-13T14:55:06.293Z,12
2017-04-13T15:05:21.597Z,11.7
2017-04-13T15:15:35.421Z,11.7
2017-04-13T15:25:49.572Z,11.8
2017-04-13T15:36:03.618Z,11.8
2017-04-13T15:46:18.405Z,11.8
2017-04-13T15:56:33.534Z,11.7
2017-04-13T16:06:47.483Z,11.7
2017-04-13T16:17:01.347Z,11.8
2017-04-13T16:27:15.295Z,12.3
2017-04-13T16:37:29.094Z,13.2
2017-04-13T16:47:43.122Z,11.6
2017-04-13T16:57:57.513Z,11.3
2017-04-13T17:08:11.369Z,11.2
2017-04-13T17:18:26.081Z,11
2017-04-13T17:28:41.270Z,10.9
2017-04-13T17:38:56.928Z,10.8
2017-04-13T17:49:12.280Z,10.6
2017-04-13T17:59:27.312Z,10.3
2017-04-13T18:09:41.178Z,9.8
2017-04-13T18:19:55.541Z,9.7
2017-04-13T18:30:09.214Z,9.5
2017-04-13T18:40:23.186Z,9.2
2017-04-13T18:50:37.209Z,8.8
2017-04-13T19:00:51.372Z,8.3
2017-04-13T19:11:06.970Z,7.5
2017-04-13T19:21:22.393Z,7.3
2017-04-13T19:31:36.451Z,6.7
2017-04-13T19:41:51.098Z,6
2017-04-13T19:52:06.030Z,5.8
2017-04-13T20:02:21.376Z,5.8
2017-04-13T20:12:36.504Z,5.6
2017-04-13T20:22:51.984Z,5.9
2017-04-13T20:33:05.777Z,5.1
2017-04-13T20:43:21.341Z,4.6
2017-04-13T20:53:36.479Z,3.8
2017-04-13T21:03:51.477Z,3.7
2017-04-13T21:14:05.589Z,4.2
2017-04-13T21:24:19.970Z,4.5
2017-04-13T21:34:34.474Z,4.6
2017-04-13T21:44:49.530Z,4.7
2017-04-13T21:55:04.550Z,4.6
2017-04-13T22:05:18.705Z,4.5
2017-04-13T22:15:32.428Z,4.5
2017-04-13T22:25:46.923Z,4.3
2017-04-13T22:36:01.022Z,3.9
2017-04-13T22:46:16.696Z,4
2017-04-13T22:56:31.917Z,4
2017-04-13T23:06:46.160Z,3.8
2017-04-13T23:17:01.825Z,3.7
2017-04-13T23:27:16.376Z,3.4
2017-04-13T23:37:31.254Z,3.2
2017-04-13T23:47:45.264Z,3.3
2017-04-13T23:57:59.257Z,3.1
